sensor_id;sensor_type;location;lat;lon;timestamp;P1;durP1;ratioP1;P2;durP2;ratioP2
1446;SDS011;717;51.522;7.266;2023-06-04T00:02:10;1.73;;;1.27;;
1446;SDS011;717;51.522;7.266;2023-06-04T00:04:39;1.70;;;1.20;;
1446;SDS011;717;51.522;7.266;2023-06-04T00:07:07;1.02;;;0.93;;
1446;SDS011;717;51.522;7.266;2023-06-04T00:09:39;1.50;;;1.30;;
1446;SDS011;717;51.522;7.266;2023-06-04T00:12:09;1.23;;;1.10;;
1446;SDS011;717;51.522;7.266;2023-06-04T00:14:37;2.17;;;1.00;;
1446;SDS011;717;51.522;7.266;2023-06-04T00:17:07;2.05;;;1.23;;
1446;SDS011;717;51.522;7.266;2023-06-04T00:19:37;3.55;;;1.30;;
1446;SDS011;717;51.522;7.266;2023-06-04T00:22:06;2.45;;;1.27;;
1446;SDS011;717;51.522;7.266;2023-06-04T00:24:36;2.70;;;1.35;;
1446;SDS011;717;51.522;7.266;2023-06-04T00:27:08;2.20;;;1.05;;
1446;SDS011;717;51.522;7.266;2023-06-04T00:29:37;1.35;;;1.05;;
1446;SDS011;717;51.522;7.266;2023-06-04T00:32:06;1.50;;;1.40;;
1446;SDS011;717;51.522;7.266;2023-06-04T00:34:35;1.67;;;1.00;;
1446;SDS011;717;51.522;7.266;2023-06-04T00:37:04;1.25;;;1.05;;
1446;SDS011;717;51.522;7.266;2023-06-04T00:39:33;1.58;;;0.90;;
1446;SDS011;717;51.522;7.266;2023-06-04T00:42:05;1.45;;;1.13;;
1446;SDS011;717;51.522;7.266;2023-06-04T00:44:34;1.23;;;1.10;;
1446;SDS011;717;51.522;7.266;2023-06-04T00:47:02;1.52;;;1.10;;
1446;SDS011;717;51.522;7.266;2023-06-04T00:49:32;1.48;;;1.27;;
1446;SDS011;717;51.522;7.266;2023-06-04T00:52:00;1.70;;;1.00;;
1446;SDS011;717;51.522;7.266;2023-06-04T00:54:30;3.10;;;1.20;;
1446;SDS011;717;51.522;7.266;2023-06-04T00:56:59;1.80;;;1.25;;
1446;SDS011;717;51.522;7.266;2023-06-04T00:59:30;0.98;;;0.80;;
1446;SDS011;717;51.522;7.266;2023-06-04T01:02:02;1.70;;;1.40;;
1446;SDS011;717;51.522;7.266;2023-06-04T01:04:36;3.60;;;1.23;;
1446;SDS011;717;51.522;7.266;2023-06-04T01:07:10;3.45;;;1.55;;
1446;SDS011;717;51.522;7.266;2023-06-04T01:09:41;3.03;;;1.27;;
1446;SDS011;717;51.522;7.266;2023-06-04T01:12:11;1.30;;;1.10;;
1446;SDS011;717;51.522;7.266;2023-06-04T01:14:43;2.30;;;1.10;;
1446;SDS011;717;51.522;7.266;2023-06-04T01:17:13;1.75;;;1.52;;
1446;SDS011;717;51.522;7.266;2023-06-04T01:22:54;1.30;;;1.10;;
1446;SDS011;717;51.522;7.266;2023-06-04T01:25:34;1.73;;;1.30;;
1446;SDS011;717;51.522;7.266;2023-06-04T01:28:05;3.83;;;1.23;;
1446;SDS011;717;51.522;7.266;2023-06-04T01:30:38;2.85;;;1.30;;
1446;SDS011;717;51.522;7.266;2023-06-04T01:33:11;4.50;;;1.13;;
1446;SDS011;717;51.522;7.266;2023-06-04T01:35:41;1.73;;;1.25;;
1446;SDS011;717;51.522;7.266;2023-06-04T01:38:10;2.65;;;1.30;;
1446;SDS011;717;51.522;7.266;2023-06-04T01:40:39;1.58;;;1.17;;
1446;SDS011;717;51.522;7.266;2023-06-04T01:43:08;2.38;;;1.20;;
1446;SDS011;717;51.522;7.266;2023-06-04T01:45:40;1.50;;;1.10;;
1446;SDS011;717;51.522;7.266;2023-06-04T01:48:08;2.90;;;1.25;;
1446;SDS011;717;51.522;7.266;2023-06-04T01:50:37;2.65;;;1.00;;
1446;SDS011;717;51.522;7.266;2023-06-04T01:53:05;1.58;;;1.20;;
1446;SDS011;717;51.522;7.266;2023-06-04T01:55:34;2.67;;;1.10;;
1446;SDS011;717;51.522;7.266;2023-06-04T01:58:03;2.13;;;1.27;;
1446;SDS011;717;51.522;7.266;2023-06-04T02:00:32;2.38;;;1.25;;
1446;SDS011;717;51.522;7.266;2023-06-04T02:03:03;1.98;;;1.30;;
1446;SDS011;717;51.522;7.266;2023-06-04T02:05:33;1.20;;;1.10;;
1446;SDS011;717;51.522;7.266;2023-06-04T02:08:02;2.78;;;1.30;;
1446;SDS011;717;51.522;7.266;2023-06-04T02:10:31;3.35;;;1.30;;
1446;SDS011;717;51.522;7.266;2023-06-04T02:13:00;2.20;;;1.00;;
1446;SDS011;717;51.522;7.266;2023-06-04T02:15:31;2.38;;;1.10;;
1446;SDS011;717;51.522;7.266;2023-06-04T02:18:11;1.92;;;1.23;;
1446;SDS011;717;51.522;7.266;2023-06-04T02:20:42;2.10;;;1.35;;
1446;SDS011;717;51.522;7.266;2023-06-04T02:23:11;1.33;;;1.20;;
1446;SDS011;717;51.522;7.266;2023-06-04T02:25:40;1.77;;;1.30;;
1446;SDS011;717;51.522;7.266;2023-06-04T02:28:09;1.85;;;1.20;;
1446;SDS011;717;51.522;7.266;2023-06-04T02:30:38;1.52;;;1.10;;
1446;SDS011;717;51.522;7.266;2023-06-04T02:33:09;2.25;;;1.40;;
1446;SDS011;717;51.522;7.266;2023-06-04T02:35:38;2.72;;;1.23;;
1446;SDS011;717;51.522;7.266;2023-06-04T02:38:06;1.77;;;1.10;;
1446;SDS011;717;51.522;7.266;2023-06-04T02:40:35;2.40;;;1.30;;
1446;SDS011;717;51.522;7.266;2023-06-04T02:43:03;1.60;;;1.38;;
1446;SDS011;717;51.522;7.266;2023-06-04T02:45:32;2.05;;;1.48;;
1446;SDS011;717;51.522;7.266;2023-06-04T02:48:01;2.00;;;1.27;;
1446;SDS011;717;51.522;7.266;2023-06-04T02:50:32;3.28;;;1.30;;
1446;SDS011;717;51.522;7.266;2023-06-04T02:53:00;1.50;;;1.38;;
1446;SDS011;717;51.522;7.266;2023-06-04T02:55:29;2.20;;;1.23;;
1446;SDS011;717;51.522;7.266;2023-06-04T02:57:59;2.03;;;1.30;;
1446;SDS011;717;51.522;7.266;2023-06-04T03:00:28;2.85;;;1.40;;
1446;SDS011;717;51.522;7.266;2023-06-04T03:02:56;2.25;;;1.50;;
1446;SDS011;717;51.522;7.266;2023-06-04T03:05:27;3.10;;;1.50;;
1446;SDS011;717;51.522;7.266;2023-06-04T03:08:00;2.55;;;1.70;;
1446;SDS011;717;51.522;7.266;2023-06-04T03:10:30;2.58;;;1.67;;
1446;SDS011;717;51.522;7.266;2023-06-04T03:12:59;2.35;;;1.33;;
1446;SDS011;717;51.522;7.266;2023-06-04T03:15:28;3.08;;;1.40;;
1446;SDS011;717;51.522;7.266;2023-06-04T03:17:56;3.40;;;1.70;;
1446;SDS011;717;51.522;7.266;2023-06-04T03:20:25;2.03;;;1.30;;
1446;SDS011;717;51.522;7.266;2023-06-04T03:22:53;1.55;;;1.35;;
1446;SDS011;717;51.522;7.266;2023-06-04T03:25:25;2.10;;;1.80;;
1446;SDS011;717;51.522;7.266;2023-06-04T03:27:53;1.98;;;1.30;;
1446;SDS011;717;51.522;7.266;2023-06-04T03:30:22;2.22;;;1.35;;
1446;SDS011;717;51.522;7.266;2023-06-04T03:32:51;2.10;;;1.60;;
1446;SDS011;717;51.522;7.266;2023-06-04T03:35:19;3.38;;;1.30;;
1446;SDS011;717;51.522;7.266;2023-06-04T03:37:48;2.42;;;1.55;;
1446;SDS011;717;51.522;7.266;2023-06-04T03:40:17;2.15;;;1.30;;
1446;SDS011;717;51.522;7.266;2023-06-04T03:42:48;2.15;;;1.50;;
1446;SDS011;717;51.522;7.266;2023-06-04T03:45:16;1.30;;;1.20;;
1446;SDS011;717;51.522;7.266;2023-06-04T03:47:45;1.52;;;1.42;;
1446;SDS011;717;51.522;7.266;2023-06-04T03:50:14;2.38;;;1.38;;
1446;SDS011;717;51.522;7.266;2023-06-04T03:52:42;3.33;;;1.45;;
1446;SDS011;717;51.522;7.266;2023-06-04T03:55:11;1.58;;;1.40;;
1446;SDS011;717;51.522;7.266;2023-06-04T03:57:39;2.65;;;1.73;;
1446;SDS011;717;51.522;7.266;2023-06-04T04:00:11;2.25;;;1.77;;
1446;SDS011;717;51.522;7.266;2023-06-04T04:02:41;2.33;;;1.80;;
1446;SDS011;717;51.522;7.266;2023-06-04T04:05:10;2.22;;;1.38;;
1446;SDS011;717;51.522;7.266;2023-06-04T04:07:40;2.15;;;1.65;;
1446;SDS011;717;51.522;7.266;2023-06-04T04:10:08;2.67;;;1.60;;
1446;SDS011;717;51.522;7.266;2023-06-04T04:12:37;2.60;;;1.52;;
1446;SDS011;717;51.522;7.266;2023-06-04T04:15:06;2.08;;;1.58;;
1446;SDS011;717;51.522;7.266;2023-06-04T04:17:38;2.17;;;1.60;;
1446;SDS011;717;51.522;7.266;2023-06-04T04:20:08;2.15;;;1.50;;
1446;SDS011;717;51.522;7.266;2023-06-04T04:22:39;3.15;;;1.42;;
1446;SDS011;717;51.522;7.266;2023-06-04T04:25:09;2.30;;;1.50;;
1446;SDS011;717;51.522;7.266;2023-06-04T04:27:37;2.55;;;1.55;;
1446;SDS011;717;51.522;7.266;2023-06-04T04:30:06;2.40;;;1.60;;
1446;SDS011;717;51.522;7.266;2023-06-04T04:32:40;3.10;;;1.60;;
1446;SDS011;717;51.522;7.266;2023-06-04T04:35:13;3.85;;;1.33;;
1446;SDS011;717;51.522;7.266;2023-06-04T04:37:43;2.33;;;1.67;;
1446;SDS011;717;51.522;7.266;2023-06-04T04:40:12;3.10;;;1.45;;
1446;SDS011;717;51.522;7.266;2023-06-04T04:42:41;2.83;;;1.80;;
1446;SDS011;717;51.522;7.266;2023-06-04T04:45:10;2.35;;;1.40;;
1446;SDS011;717;51.522;7.266;2023-06-04T04:47:41;1.75;;;1.35;;
1446;SDS011;717;51.522;7.266;2023-06-04T04:50:10;3.03;;;1.65;;
1446;SDS011;717;51.522;7.266;2023-06-04T04:52:39;1.95;;;1.60;;
1446;SDS011;717;51.522;7.266;2023-06-04T04:55:08;2.78;;;1.70;;
1446;SDS011;717;51.522;7.266;2023-06-04T04:57:37;3.55;;;1.67;;
1446;SDS011;717;51.522;7.266;2023-06-04T05:00:06;3.20;;;1.88;;
1446;SDS011;717;51.522;7.266;2023-06-04T05:02:36;2.83;;;1.83;;
1446;SDS011;717;51.522;7.266;2023-06-04T05:05:08;2.10;;;1.80;;
1446;SDS011;717;51.522;7.266;2023-06-04T05:07:37;2.67;;;1.83;;
1446;SDS011;717;51.522;7.266;2023-06-04T05:10:06;2.88;;;1.80;;
1446;SDS011;717;51.522;7.266;2023-06-04T05:12:35;2.83;;;1.83;;
1446;SDS011;717;51.522;7.266;2023-06-04T05:15:04;2.58;;;1.80;;
1446;SDS011;717;51.522;7.266;2023-06-04T05:17:37;2.55;;;2.03;;
1446;SDS011;717;51.522;7.266;2023-06-04T05:20:09;1.88;;;1.70;;
1446;SDS011;717;51.522;7.266;2023-06-04T05:22:39;2.92;;;2.03;;
1446;SDS011;717;51.522;7.266;2023-06-04T05:25:08;2.85;;;2.00;;
1446;SDS011;717;51.522;7.266;2023-06-04T05:27:37;2.17;;;1.98;;
1446;SDS011;717;51.522;7.266;2023-06-04T05:30:06;2.67;;;2.30;;
1446;SDS011;717;51.522;7.266;2023-06-04T05:32:36;2.22;;;2.00;;
1446;SDS011;717;51.522;7.266;2023-06-04T05:35:06;2.60;;;2.40;;
1446;SDS011;717;51.522;7.266;2023-06-04T05:37:37;3.88;;;2.00;;
1446;SDS011;717;51.522;7.266;2023-06-04T05:40:07;3.92;;;2.30;;
1446;SDS011;717;51.522;7.266;2023-06-04T05:42:37;2.78;;;2.15;;
1446;SDS011;717;51.522;7.266;2023-06-04T05:45:06;3.47;;;2.17;;
1446;SDS011;717;51.522;7.266;2023-06-04T05:47:36;2.83;;;2.20;;
1446;SDS011;717;51.522;7.266;2023-06-04T05:50:05;2.83;;;2.17;;
1446;SDS011;717;51.522;7.266;2023-06-04T05:52:38;3.13;;;2.25;;
1446;SDS011;717;51.522;7.266;2023-06-04T05:55:07;3.03;;;2.72;;
1446;SDS011;717;51.522;7.266;2023-06-04T05:57:36;3.40;;;2.17;;
1446;SDS011;717;51.522;7.266;2023-06-04T06:00:05;3.05;;;2.38;;
1446;SDS011;717;51.522;7.266;2023-06-04T06:02:36;3.35;;;2.53;;
1446;SDS011;717;51.522;7.266;2023-06-04T06:05:06;3.05;;;2.50;;
1446;SDS011;717;51.522;7.266;2023-06-04T06:07:37;5.38;;;2.65;;
1446;SDS011;717;51.522;7.266;2023-06-04T06:10:06;3.88;;;2.30;;
1446;SDS011;717;51.522;7.266;2023-06-04T06:12:35;2.72;;;2.15;;
1446;SDS011;717;51.522;7.266;2023-06-04T06:15:05;4.30;;;2.03;;
1446;SDS011;717;51.522;7.266;2023-06-04T06:17:35;4.22;;;2.15;;
1446;SDS011;717;51.522;7.266;2023-06-04T06:20:04;2.60;;;2.30;;
1446;SDS011;717;51.522;7.266;2023-06-04T06:22:39;2.55;;;2.05;;
1446;SDS011;717;51.522;7.266;2023-06-04T06:25:11;3.90;;;2.33;;
1446;SDS011;717;51.522;7.266;2023-06-04T06:27:41;5.38;;;2.45;;
1446;SDS011;717;51.522;7.266;2023-06-04T06:30:10;3.53;;;2.45;;
1446;SDS011;717;51.522;7.266;2023-06-04T06:32:40;4.13;;;2.13;;
1446;SDS011;717;51.522;7.266;2023-06-04T06:35:10;2.88;;;2.30;;
1446;SDS011;717;51.522;7.266;2023-06-04T06:37:42;3.30;;;1.88;;
1446;SDS011;717;51.522;7.266;2023-06-04T06:40:11;3.33;;;2.20;;
1446;SDS011;717;51.522;7.266;2023-06-04T06:42:40;2.90;;;2.20;;
1446;SDS011;717;51.522;7.266;2023-06-04T06:45:09;2.92;;;1.90;;
1446;SDS011;717;51.522;7.266;2023-06-04T06:47:43;3.17;;;2.20;;
1446;SDS011;717;51.522;7.266;2023-06-04T06:50:17;2.05;;;1.80;;
1446;SDS011;717;51.522;7.266;2023-06-04T06:52:48;2.72;;;1.80;;
1446;SDS011;717;51.522;7.266;2023-06-04T06:55:17;2.92;;;1.80;;
1446;SDS011;717;51.522;7.266;2023-06-04T06:57:45;2.38;;;1.80;;
1446;SDS011;717;51.522;7.266;2023-06-04T07:00:14;2.05;;;1.42;;
1446;SDS011;717;51.522;7.266;2023-06-04T07:02:44;2.28;;;1.67;;
1446;SDS011;717;51.522;7.266;2023-06-04T07:05:13;2.15;;;1.65;;
1446;SDS011;717;51.522;7.266;2023-06-04T07:07:42;2.03;;;1.48;;
1446;SDS011;717;51.522;7.266;2023-06-04T07:10:14;2.35;;;1.50;;
1446;SDS011;717;51.522;7.266;2023-06-04T07:12:42;2.08;;;1.23;;
1446;SDS011;717;51.522;7.266;2023-06-04T07:15:11;2.25;;;1.42;;
1446;SDS011;717;51.522;7.266;2023-06-04T07:17:39;2.95;;;1.08;;
1446;SDS011;717;51.522;7.266;2023-06-04T07:20:08;1.98;;;1.50;;
1446;SDS011;717;51.522;7.266;2023-06-04T07:22:37;1.30;;;1.20;;
1446;SDS011;717;51.522;7.266;2023-06-04T07:25:06;2.58;;;1.20;;
1446;SDS011;717;51.522;7.266;2023-06-04T07:27:38;4.07;;;1.30;;
1446;SDS011;717;51.522;7.266;2023-06-04T07:30:08;2.50;;;1.40;;
1446;SDS011;717;51.522;7.266;2023-06-04T07:32:37;1.23;;;1.13;;
1446;SDS011;717;51.522;7.266;2023-06-04T07:35:06;2.15;;;1.10;;
1446;SDS011;717;51.522;7.266;2023-06-04T07:37:36;2.63;;;1.08;;
1446;SDS011;717;51.522;7.266;2023-06-04T07:40:06;3.60;;;1.33;;
1446;SDS011;717;51.522;7.266;2023-06-04T07:42:47;2.65;;;1.50;;
1446;SDS011;717;51.522;7.266;2023-06-04T07:45:26;2.20;;;1.58;;
1446;SDS011;717;51.522;7.266;2023-06-04T07:47:56;2.22;;;1.63;;
1446;SDS011;717;51.522;7.266;2023-06-04T07:50:24;2.10;;;1.33;;
1446;SDS011;717;51.522;7.266;2023-06-04T07:52:53;1.70;;;1.20;;
1446;SDS011;717;51.522;7.266;2023-06-04T07:55:21;1.33;;;1.05;;
1446;SDS011;717;51.522;7.266;2023-06-04T07:57:53;2.60;;;1.48;;
1446;SDS011;717;51.522;7.266;2023-06-04T08:00:21;1.40;;;1.27;;
1446;SDS011;717;51.522;7.266;2023-06-04T08:02:50;1.13;;;1.00;;
1446;SDS011;717;51.522;7.266;2023-06-04T08:05:19;1.90;;;1.38;;
1446;SDS011;717;51.522;7.266;2023-06-04T08:07:48;1.45;;;1.20;;
1446;SDS011;717;51.522;7.266;2023-06-04T08:10:18;2.38;;;1.33;;
1446;SDS011;717;51.522;7.266;2023-06-04T08:12:47;1.58;;;0.95;;
1446;SDS011;717;51.522;7.266;2023-06-04T08:15:18;1.58;;;1.20;;
1446;SDS011;717;51.522;7.266;2023-06-04T08:17:47;1.83;;;1.48;;
1446;SDS011;717;51.522;7.266;2023-06-04T08:20:15;2.95;;;1.42;;
1446;SDS011;717;51.522;7.266;2023-06-04T08:22:44;1.95;;;1.20;;
1446;SDS011;717;51.522;7.266;2023-06-04T08:25:13;1.58;;;1.30;;
1446;SDS011;717;51.522;7.266;2023-06-04T08:27:42;3.13;;;1.40;;
1446;SDS011;717;51.522;7.266;2023-06-04T08:30:11;1.98;;;1.83;;
1446;SDS011;717;51.522;7.266;2023-06-04T08:32:42;1.40;;;1.30;;
1446;SDS011;717;51.522;7.266;2023-06-04T08:35:11;2.00;;;1.80;;
1446;SDS011;717;51.522;7.266;2023-06-04T08:37:40;2.35;;;1.58;;
1446;SDS011;717;51.522;7.266;2023-06-04T08:40:08;2.88;;;1.65;;
1446;SDS011;717;51.522;7.266;2023-06-04T08:42:38;2.08;;;1.70;;
1446;SDS011;717;51.522;7.266;2023-06-04T08:45:10;2.40;;;1.70;;
1446;SDS011;717;51.522;7.266;2023-06-04T08:47:47;1.95;;;1.30;;
1446;SDS011;717;51.522;7.266;2023-06-04T08:50:17;3.53;;;2.00;;
1446;SDS011;717;51.522;7.266;2023-06-04T08:52:47;3.35;;;2.25;;
1446;SDS011;717;51.522;7.266;2023-06-04T08:55:19;3.25;;;2.00;;
1446;SDS011;717;51.522;7.266;2023-06-04T08:57:49;2.35;;;2.05;;
1446;SDS011;717;51.522;7.266;2023-06-04T09:00:18;3.10;;;2.33;;
1446;SDS011;717;51.522;7.266;2023-06-04T09:02:50;3.22;;;2.20;;
1446;SDS011;717;51.522;7.266;2023-06-04T09:05:19;2.72;;;2.40;;
1446;SDS011;717;51.522;7.266;2023-06-04T09:07:50;3.65;;;2.33;;
1446;SDS011;717;51.522;7.266;2023-06-04T09:10:22;3.55;;;2.22;;
1446;SDS011;717;51.522;7.266;2023-06-04T09:12:52;6.80;;;2.45;;
1446;SDS011;717;51.522;7.266;2023-06-04T09:15:23;4.65;;;1.95;;
1446;SDS011;717;51.522;7.266;2023-06-04T09:17:54;4.30;;;2.45;;
1446;SDS011;717;51.522;7.266;2023-06-04T09:20:23;2.80;;;2.53;;
1446;SDS011;717;51.522;7.266;2023-06-04T09:22:53;3.88;;;2.17;;
1446;SDS011;717;51.522;7.266;2023-06-04T09:25:22;3.50;;;2.38;;
1446;SDS011;717;51.522;7.266;2023-06-04T09:27:52;2.92;;;1.90;;
1446;SDS011;717;51.522;7.266;2023-06-04T09:30:25;3.03;;;2.58;;
1446;SDS011;717;51.522;7.266;2023-06-04T09:33:05;3.13;;;2.00;;
1446;SDS011;717;51.522;7.266;2023-06-04T09:35:34;3.35;;;2.63;;
1446;SDS011;717;51.522;7.266;2023-06-04T09:38:04;3.28;;;2.10;;
1446;SDS011;717;51.522;7.266;2023-06-04T09:40:36;3.42;;;1.90;;
1446;SDS011;717;51.522;7.266;2023-06-04T09:43:06;3.28;;;2.15;;
1446;SDS011;717;51.522;7.266;2023-06-04T09:45:35;2.78;;;1.90;;
1446;SDS011;717;51.522;7.266;2023-06-04T09:48:06;3.63;;;2.85;;
1446;SDS011;717;51.522;7.266;2023-06-04T09:50:35;3.30;;;2.60;;
1446;SDS011;717;51.522;7.266;2023-06-04T09:53:12;3.17;;;2.15;;
1446;SDS011;717;51.522;7.266;2023-06-04T09:55:42;4.20;;;1.95;;
1446;SDS011;717;51.522;7.266;2023-06-04T09:58:10;4.40;;;1.85;;
1446;SDS011;717;51.522;7.266;2023-06-04T10:00:40;1.83;;;1.45;;
1446;SDS011;717;51.522;7.266;2023-06-04T10:03:11;3.28;;;1.90;;
1446;SDS011;717;51.522;7.266;2023-06-04T10:05:48;2.03;;;1.40;;
1446;SDS011;717;51.522;7.266;2023-06-04T10:08:18;3.17;;;1.60;;
1446;SDS011;717;51.522;7.266;2023-06-04T10:10:48;2.72;;;1.50;;
1446;SDS011;717;51.522;7.266;2023-06-04T10:13:18;3.08;;;1.52;;
1446;SDS011;717;51.522;7.266;2023-06-04T10:15:47;1.95;;;1.40;;
1446;SDS011;717;51.522;7.266;2023-06-04T10:18:20;2.30;;;1.30;;
1446;SDS011;717;51.522;7.266;2023-06-04T10:20:52;2.45;;;1.23;;
1446;SDS011;717;51.522;7.266;2023-06-04T10:23:23;2.53;;;1.35;;
1446;SDS011;717;51.522;7.266;2023-06-04T10:25:52;2.85;;;1.30;;
1446;SDS011;717;51.522;7.266;2023-06-04T10:28:23;3.88;;;1.60;;
1446;SDS011;717;51.522;7.266;2023-06-04T10:30:53;3.25;;;1.30;;
1446;SDS011;717;51.522;7.266;2023-06-04T10:33:24;2.42;;;1.40;;
1446;SDS011;717;51.522;7.266;2023-06-04T10:35:53;3.85;;;1.40;;
1446;SDS011;717;51.522;7.266;2023-06-04T10:38:22;2.00;;;1.60;;
1446;SDS011;717;51.522;7.266;2023-06-04T10:40:51;2.20;;;1.45;;
1446;SDS011;717;51.522;7.266;2023-06-04T10:43:20;1.75;;;1.45;;
1446;SDS011;717;51.522;7.266;2023-06-04T10:45:49;2.85;;;1.73;;
1446;SDS011;717;51.522;7.266;2023-06-04T10:48:17;1.63;;;1.45;;
1446;SDS011;717;51.522;7.266;2023-06-04T10:50:52;2.40;;;1.83;;
1446;SDS011;717;51.522;7.266;2023-06-04T10:53:21;3.92;;;1.70;;
1446;SDS011;717;51.522;7.266;2023-06-04T10:55:49;2.95;;;1.50;;
1446;SDS011;717;51.522;7.266;2023-06-04T10:58:18;3.70;;;1.73;;
1446;SDS011;717;51.522;7.266;2023-06-04T11:00:46;3.05;;;1.63;;
1446;SDS011;717;51.522;7.266;2023-06-04T11:03:15;1.70;;;1.50;;
1446;SDS011;717;51.522;7.266;2023-06-04T11:05:45;2.72;;;1.60;;
1446;SDS011;717;51.522;7.266;2023-06-04T11:08:25;2.97;;;1.77;;
1446;SDS011;717;51.522;7.266;2023-06-04T11:10:56;2.75;;;1.75;;
1446;SDS011;717;51.522;7.266;2023-06-04T11:13:25;2.58;;;1.85;;
1446;SDS011;717;51.522;7.266;2023-06-04T11:15:54;2.40;;;2.10;;
1446;SDS011;717;51.522;7.266;2023-06-04T11:18:23;3.85;;;2.17;;
1446;SDS011;717;51.522;7.266;2023-06-04T11:20:58;2.28;;;2.08;;
1446;SDS011;717;51.522;7.266;2023-06-04T11:23:30;2.10;;;1.80;;
1446;SDS011;717;51.522;7.266;2023-06-04T11:26:00;2.85;;;1.80;;
1446;SDS011;717;51.522;7.266;2023-06-04T11:28:29;2.85;;;1.40;;
1446;SDS011;717;51.522;7.266;2023-06-04T11:30:58;2.10;;;1.50;;
1446;SDS011;717;51.522;7.266;2023-06-04T11:33:27;3.00;;;1.67;;
1446;SDS011;717;51.522;7.266;2023-06-04T11:35:56;2.05;;;1.50;;
1446;SDS011;717;51.522;7.266;2023-06-04T11:38:25;1.70;;;1.60;;
1446;SDS011;717;51.522;7.266;2023-06-04T11:40:57;3.00;;;1.60;;
1446;SDS011;717;51.522;7.266;2023-06-04T11:43:26;3.10;;;1.55;;
1446;SDS011;717;51.522;7.266;2023-06-04T11:45:56;3.20;;;1.67;;
1446;SDS011;717;51.522;7.266;2023-06-04T11:48:25;2.67;;;1.60;;
1446;SDS011;717;51.522;7.266;2023-06-04T11:50:53;2.10;;;1.50;;
1446;SDS011;717;51.522;7.266;2023-06-04T11:53:22;1.98;;;1.42;;
1446;SDS011;717;51.522;7.266;2023-06-04T11:55:51;2.05;;;1.30;;
1446;SDS011;717;51.522;7.266;2023-06-04T11:58:22;2.20;;;1.20;;
1446;SDS011;717;51.522;7.266;2023-06-04T12:00:52;2.10;;;1.60;;
1446;SDS011;717;51.522;7.266;2023-06-04T12:03:34;3.55;;;1.50;;
1446;SDS011;717;51.522;7.266;2023-06-04T12:06:10;2.92;;;1.17;;
1446;SDS011;717;51.522;7.266;2023-06-04T12:08:44;2.47;;;1.00;;
1446;SDS011;717;51.522;7.266;2023-06-04T12:11:27;2.35;;;1.00;;
1446;SDS011;717;51.522;7.266;2023-06-04T12:14:00;1.30;;;0.98;;
1446;SDS011;717;51.522;7.266;2023-06-04T12:16:31;2.45;;;1.13;;
1446;SDS011;717;51.522;7.266;2023-06-04T12:19:04;1.20;;;1.10;;
1446;SDS011;717;51.522;7.266;2023-06-04T12:21:35;1.00;;;1.00;;
1446;SDS011;717;51.522;7.266;2023-06-04T12:24:07;1.58;;;0.85;;
1446;SDS011;717;51.522;7.266;2023-06-04T12:26:38;2.33;;;1.15;;
1446;SDS011;717;51.522;7.266;2023-06-04T12:29:12;2.35;;;1.50;;
1446;SDS011;717;51.522;7.266;2023-06-04T12:31:43;2.15;;;1.42;;
1446;SDS011;717;51.522;7.266;2023-06-04T12:34:13;3.97;;;1.27;;
1446;SDS011;717;51.522;7.266;2023-06-04T12:36:42;1.60;;;1.20;;
1446;SDS011;717;51.522;7.266;2023-06-04T12:39:11;2.50;;;0.98;;
1446;SDS011;717;51.522;7.266;2023-06-04T12:41:40;1.63;;;1.00;;
1446;SDS011;717;51.522;7.266;2023-06-04T12:44:15;2.17;;;1.00;;
1446;SDS011;717;51.522;7.266;2023-06-04T12:46:44;2.42;;;1.02;;
1446;SDS011;717;51.522;7.266;2023-06-04T12:49:13;2.65;;;1.30;;
1446;SDS011;717;51.522;7.266;2023-06-04T12:51:44;2.75;;;1.15;;
1446;SDS011;717;51.522;7.266;2023-06-04T12:54:12;1.48;;;1.10;;
1446;SDS011;717;51.522;7.266;2023-06-04T12:56:41;1.58;;;1.00;;
1446;SDS011;717;51.522;7.266;2023-06-04T12:59:11;3.03;;;1.20;;
1446;SDS011;717;51.522;7.266;2023-06-04T13:01:42;1.80;;;1.13;;
1446;SDS011;717;51.522;7.266;2023-06-04T13:04:11;1.65;;;1.15;;
1446;SDS011;717;51.522;7.266;2023-06-04T13:06:40;1.80;;;1.20;;
1446;SDS011;717;51.522;7.266;2023-06-04T13:09:10;1.20;;;1.10;;
1446;SDS011;717;51.522;7.266;2023-06-04T13:11:42;1.83;;;1.27;;
1446;SDS011;717;51.522;7.266;2023-06-04T13:14:11;1.10;;;1.00;;
1446;SDS011;717;51.522;7.266;2023-06-04T13:16:42;2.15;;;1.20;;
1446;SDS011;717;51.522;7.266;2023-06-04T13:19:14;1.73;;;1.00;;
1446;SDS011;717;51.522;7.266;2023-06-04T13:21:44;3.95;;;1.40;;
1446;SDS011;717;51.522;7.266;2023-06-04T13:24:13;2.67;;;1.10;;
1446;SDS011;717;51.522;7.266;2023-06-04T13:26:41;1.10;;;1.00;;
1446;SDS011;717;51.522;7.266;2023-06-04T13:29:10;1.42;;;1.00;;
1446;SDS011;717;51.522;7.266;2023-06-04T13:31:43;1.98;;;0.90;;
1446;SDS011;717;51.522;7.266;2023-06-04T13:34:12;3.22;;;1.13;;
1446;SDS011;717;51.522;7.266;2023-06-04T13:36:40;1.13;;;0.98;;
1446;SDS011;717;51.522;7.266;2023-06-04T13:39:09;3.42;;;1.20;;
1446;SDS011;717;51.522;7.266;2023-06-04T13:41:37;2.78;;;1.10;;
1446;SDS011;717;51.522;7.266;2023-06-04T13:44:06;1.15;;;1.05;;
1446;SDS011;717;51.522;7.266;2023-06-04T13:46:35;3.67;;;1.33;;
1446;SDS011;717;51.522;7.266;2023-06-04T13:49:06;2.17;;;1.25;;
1446;SDS011;717;51.522;7.266;2023-06-04T13:51:34;4.30;;;1.10;;
1446;SDS011;717;51.522;7.266;2023-06-04T13:54:04;1.92;;;1.10;;
1446;SDS011;717;51.522;7.266;2023-06-04T13:56:32;4.80;;;1.20;;
1446;SDS011;717;51.522;7.266;2023-06-04T13:59:02;2.95;;;1.30;;
1446;SDS011;717;51.522;7.266;2023-06-04T14:01:31;3.58;;;1.42;;
1446;SDS011;717;51.522;7.266;2023-06-04T14:04:00;1.90;;;1.00;;
1446;SDS011;717;51.522;7.266;2023-06-04T14:06:34;1.83;;;1.23;;
1446;SDS011;717;51.522;7.266;2023-06-04T14:09:03;2.97;;;1.40;;
1446;SDS011;717;51.522;7.266;2023-06-04T14:11:38;2.97;;;1.40;;
1446;SDS011;717;51.522;7.266;2023-06-04T14:14:07;1.70;;;1.25;;
1446;SDS011;717;51.522;7.266;2023-06-04T14:16:36;1.42;;;1.13;;
1446;SDS011;717;51.522;7.266;2023-06-04T14:19:05;2.58;;;1.27;;
1446;SDS011;717;51.522;7.266;2023-06-04T14:21:36;1.63;;;1.15;;
1446;SDS011;717;51.522;7.266;2023-06-04T14:24:05;2.17;;;1.60;;
1446;SDS011;717;51.522;7.266;2023-06-04T14:26:34;1.77;;;1.40;;
1446;SDS011;717;51.522;7.266;2023-06-04T14:29:03;1.50;;;1.40;;
1446;SDS011;717;51.522;7.266;2023-06-04T14:31:32;1.60;;;1.50;;
1446;SDS011;717;51.522;7.266;2023-06-04T14:34:00;2.80;;;1.70;;
1446;SDS011;717;51.522;7.266;2023-06-04T14:36:29;1.95;;;1.50;;
1446;SDS011;717;51.522;7.266;2023-06-04T14:39:01;2.03;;;1.50;;
1446;SDS011;717;51.522;7.266;2023-06-04T14:41:29;2.65;;;1.58;;
1446;SDS011;717;51.522;7.266;2023-06-04T14:43:58;2.75;;;1.77;;
1446;SDS011;717;51.522;7.266;2023-06-04T14:46:26;3.22;;;1.42;;
1446;SDS011;717;51.522;7.266;2023-06-04T14:48:55;4.07;;;1.80;;
1446;SDS011;717;51.522;7.266;2023-06-04T14:51:24;2.00;;;1.48;;
1446;SDS011;717;51.522;7.266;2023-06-04T14:53:52;2.35;;;2.00;;
1446;SDS011;717;51.522;7.266;2023-06-04T14:56:23;1.70;;;1.58;;
1446;SDS011;717;51.522;7.266;2023-06-04T14:58:53;2.88;;;1.92;;
1446;SDS011;717;51.522;7.266;2023-06-04T15:01:22;3.42;;;1.70;;
1446;SDS011;717;51.522;7.266;2023-06-04T15:03:50;2.70;;;1.70;;
1446;SDS011;717;51.522;7.266;2023-06-04T15:06:19;3.03;;;1.70;;
1446;SDS011;717;51.522;7.266;2023-06-04T15:08:48;4.30;;;2.10;;
1446;SDS011;717;51.522;7.266;2023-06-04T15:11:16;3.08;;;1.85;;
1446;SDS011;717;51.522;7.266;2023-06-04T15:13:47;4.20;;;1.60;;
1446;SDS011;717;51.522;7.266;2023-06-04T15:16:16;2.58;;;2.08;;
1446;SDS011;717;51.522;7.266;2023-06-04T15:18:45;3.10;;;1.42;;
1446;SDS011;717;51.522;7.266;2023-06-04T15:21:13;2.13;;;1.65;;
1446;SDS011;717;51.522;7.266;2023-06-04T15:23:42;3.25;;;1.70;;
1446;SDS011;717;51.522;7.266;2023-06-04T15:26:13;3.22;;;1.70;;
1446;SDS011;717;51.522;7.266;2023-06-04T15:28:43;2.75;;;1.50;;
1446;SDS011;717;51.522;7.266;2023-06-04T15:31:14;4.80;;;1.88;;
1446;SDS011;717;51.522;7.266;2023-06-04T15:33:43;3.63;;;1.67;;
1446;SDS011;717;51.522;7.266;2023-06-04T15:36:11;3.17;;;1.90;;
1446;SDS011;717;51.522;7.266;2023-06-04T15:38:40;3.30;;;1.60;;
1446;SDS011;717;51.522;7.266;2023-06-04T15:41:09;1.95;;;1.85;;
1446;SDS011;717;51.522;7.266;2023-06-04T15:43:37;2.05;;;1.55;;
1446;SDS011;717;51.522;7.266;2023-06-04T15:46:06;2.13;;;1.40;;
1446;SDS011;717;51.522;7.266;2023-06-04T15:48:37;3.17;;;1.98;;
1446;SDS011;717;51.522;7.266;2023-06-04T15:51:06;4.32;;;1.95;;